Time;durP1;ratioP1;P1;durP2;ratioP2;P2;SDS_P1;SDS_P2;PMS_P1;PMS_P2;Temp;Humidity;BMP_temperature;BMP_pressure;BME280_temperature;BME280_humidity;BME280_pressure;Samples;Min_cycle;Max_cycle;Signal;HPM_P1;HPM_P2
2021/07/22 00:02:24;;;;;;;9.83;7.20;;;;;;;;;;754003;183;966369;-79
2021/07/22 00:04:50;;;;;;;10.90;6.30;;;;;;;;;;759633;183;918552;-80
2021/07/22 00:07:16;;;;;;;9.40;5.73;;;;;;;;;;756008;181;918563;-80
2021/07/22 00:09:42;;;;;;;8.73;6.70;;;;;;;;;;757317;181;917844;-80
2021/07/22 00:12:08;;;;;;;11.43;7.53;;;;;;;;;;754546;184;825112;-79
2021/07/22 00:14:34;;;;;;;8.63;6.90;;;;;;;;;;756563;181;916629;-80
2021/07/22 00:16:59;;;;;;;8.00;6.72;;;;;;;;;;753862;182;917160;-79
2021/07/22 00:19:25;;;;;;;8.60;6.50;;;;;;;;;;753108;180;916529;-80
2021/07/22 00:21:51;;;;;;;11.77;7.90;;;;;;;;;;759693;181;918487;-80
2021/07/22 00:24:17;;;;;;;9.80;6.43;;;;;;;;;;755087;183;919004;-80
2021/07/22 00:26:43;;;;;;;11.30;6.90;;;;;;;;;;756659;184;816254;-79
2021/07/22 00:29:09;;;;;;;8.20;6.67;;;;;;;;;;759753;184;824425;-79
2021/07/22 00:31:34;;;;;;;8.33;6.50;;;;;;;;;;762653;175;918933;-78
2021/07/22 00:34:00;;;;;;;9.73;6.90;;;;;;;;;;758983;182;919182;-78
2021/07/22 00:36:26;;;;;;;12.03;7.27;;;;;;;;;;766180;183;917446;-79
2021/07/22 00:38:52;;;;;;;8.10;6.43;;;;;;;;;;749891;183;1019639;-79
2021/07/22 00:41:18;;;;;;;7.83;6.50;;;;;;;;;;745660;186;918592;-78
2021/07/22 00:43:44;;;;;;;8.07;6.73;;;;;;;;;;749159;186;918182;-77
2021/07/22 00:46:09;;;;;;;9.30;7.83;;;;;;;;;;752482;186;919575;-78
2021/07/22 00:48:35;;;;;;;11.57;7.17;;;;;;;;;;762332;182;816401;-78
2021/07/22 00:51:01;;;;;;;33.67;8.47;;;;;;;;;;751816;186;918895;-77
2021/07/22 00:53:27;;;;;;;9.23;6.60;;;;;;;;;;753117;187;712688;-77
2021/07/22 00:55:53;;;;;;;9.67;7.40;;;;;;;;;;751133;186;918185;-78
2021/07/22 00:58:19;;;;;;;9.13;8.13;;;;;;;;;;762811;183;918830;-77
2021/07/22 01:00:44;;;;;;;10.70;7.40;;;;;;;;;;744108;188;1020442;-77
2021/07/22 01:03:10;;;;;;;8.50;7.03;;;;;;;;;;732112;189;919023;-77
2021/07/22 01:05:36;;;;;;;8.90;7.57;;;;;;;;;;745948;182;917739;-77
2021/07/22 01:08:03;;;;;;;11.60;7.72;;;;;;;;;;751920;186;918109;-77
2021/07/22 01:10:28;;;;;;;14.17;8.97;;;;;;;;;;758280;182;817506;-78
2021/07/22 01:12:54;;;;;;;9.43;7.43;;;;;;;;;;740950;187;917017;-77
2021/07/22 01:15:20;;;;;;;9.75;8.77;;;;;;;;;;735434;190;904200;-77
2021/07/22 01:17:47;;;;;;;13.20;9.83;;;;;;;;;;756671;187;918092;-77
2021/07/22 01:20:15;;;;;;;8.37;6.90;;;;;;;;;;748540;186;917125;-77
2021/07/22 01:22:41;;;;;;;9.93;7.05;;;;;;;;;;746283;187;917988;-77
2021/07/22 01:25:07;;;;;;;13.60;7.87;;;;;;;;;;753864;186;813275;-77
2021/07/22 01:27:33;;;;;;;9.93;7.60;;;;;;;;;;749327;186;912989;-77
2021/07/22 01:29:59;;;;;;;9.83;7.67;;;;;;;;;;763716;183;919432;-77
2021/07/22 01:32:25;;;;;;;11.10;8.60;;;;;;;;;;761716;183;919740;-77
2021/07/22 01:34:51;;;;;;;9.97;7.90;;;;;;;;;;762095;182;918500;-77
2021/07/22 01:37:16;;;;;;;14.10;8.07;;;;;;;;;;758962;182;918433;-77
2021/07/22 01:39:42;;;;;;;11.90;8.30;;;;;;;;;;751334;186;919273;-76
2021/07/22 01:42:08;;;;;;;10.00;8.00;;;;;;;;;;753064;186;918467;-77
2021/07/22 01:44:34;;;;;;;11.45;7.90;;;;;;;;;;746306;187;918461;-76
2021/07/22 01:47:00;;;;;;;10.80;8.70;;;;;;;;;;746590;186;918775;-77
2021/07/22 01:49:26;;;;;;;11.87;7.23;;;;;;;;;;751342;187;918199;-77
2021/07/22 01:51:51;;;;;;;11.83;8.40;;;;;;;;;;747923;186;918512;-77
2021/07/22 01:54:17;;;;;;;10.00;7.87;;;;;;;;;;744785;187;918973;-77
2021/07/22 01:56:43;;;;;;;11.83;7.63;;;;;;;;;;751324;186;918132;-77
2021/07/22 01:59:09;;;;;;;18.13;8.47;;;;;;;;;;749047;185;917467;-77
2021/07/22 02:01:35;;;;;;;12.70;8.43;;;;;;;;;;749118;186;922677;-76
2021/07/22 02:04:01;;;;;;;10.53;8.00;;;;;;;;;;746689;185;918886;-76
2021/07/22 02:06:26;;;;;;;14.37;7.73;;;;;;;;;;759051;183;918495;-76
2021/07/22 02:08:52;;;;;;;13.40;8.50;;;;;;;;;;757671;183;919848;-77
2021/07/22 02:11:18;;;;;;;15.63;8.50;;;;;;;;;;750238;182;919256;-77
2021/07/22 02:13:44;;;;;;;11.40;8.27;;;;;;;;;;758586;183;898616;-75
2021/07/22 02:16:10;;;;;;;14.60;8.67;;;;;;;;;;761982;182;920795;-76
2021/07/22 02:18:36;;;;;;;12.23;8.43;;;;;;;;;;759731;182;918496;-76
2021/07/22 02:21:03;;;;;;;12.53;8.40;;;;;;;;;;758402;186;917980;-76
2021/07/22 02:23:29;;;;;;;11.03;8.50;;;;;;;;;;747739;187;918541;-76
2021/07/22 02:25:55;;;;;;;10.63;7.87;;;;;;;;;;746811;187;919094;-76
2021/07/22 02:28:21;;;;;;;9.77;7.77;;;;;;;;;;744285;186;919260;-74
2021/07/22 02:30:47;;;;;;;11.43;8.53;;;;;;;;;;751976;186;1021496;-75
2021/07/22 02:33:12;;;;;;;11.57;8.00;;;;;;;;;;746184;186;915576;-74
2021/07/22 02:35:38;;;;;;;18.25;10.15;;;;;;;;;;745051;187;1021326;-74
2021/07/22 02:38:04;;;;;;;12.17;8.93;;;;;;;;;;751369;186;919274;-74
2021/07/22 02:40:30;;;;;;;12.05;9.52;;;;;;;;;;757981;183;922990;-74
2021/07/22 02:42:56;;;;;;;14.90;9.57;;;;;;;;;;760551;181;1020842;-74
2021/07/22 02:45:22;;;;;;;17.00;10.17;;;;;;;;;;759959;183;920735;-75
2021/07/22 02:47:47;;;;;;;12.93;9.83;;;;;;;;;;745163;184;919188;-74
2021/07/22 02:50:13;;;;;;;18.17;10.23;;;;;;;;;;747881;184;933800;-74
2021/07/22 02:52:40;;;;;;;15.57;9.90;;;;;;;;;;759689;183;921915;-73
2021/07/22 02:55:06;;;;;;;13.90;10.20;;;;;;;;;;757637;184;918574;-74
2021/07/22 02:57:32;;;;;;;14.90;10.13;;;;;;;;;;751175;184;925696;-73
2021/07/22 02:59:59;;;;;;;16.35;11.48;;;;;;;;;;758141;183;923346;-75
2021/07/22 03:02:23;;;;;;;34.63;10.87;;;;;;;;;;754951;186;917014;-75
2021/07/22 03:04:49;;;;;;;25.97;11.93;;;;;;;;;;760429;182;920955;-74
2021/07/22 03:07:15;;;;;;;37.63;12.45;;;;;;;;;;752248;186;919969;-74
2021/07/22 03:09:41;;;;;;;24.70;11.57;;;;;;;;;;749927;187;915810;-73
2021/07/22 03:12:07;;;;;;;22.10;10.25;;;;;;;;;;749331;185;915434;-73
2021/07/22 03:14:33;;;;;;;21.43;11.77;;;;;;;;;;749210;184;1013169;-75
2021/07/22 03:16:59;;;;;;;19.83;11.07;;;;;;;;;;762995;183;915141;-75
2021/07/22 03:19:25;;;;;;;16.80;11.60;;;;;;;;;;750136;186;915520;-74
2021/07/22 03:21:51;;;;;;;18.00;12.80;;;;;;;;;;748420;186;916617;-75
2021/07/22 03:24:16;;;;;;;17.87;12.30;;;;;;;;;;758723;182;915349;-74
2021/07/22 03:26:42;;;;;;;29.20;12.70;;;;;;;;;;765115;183;900637;-73
2021/07/22 03:29:09;;;;;;;21.20;14.40;;;;;;;;;;748007;183;915825;-74
2021/07/22 03:31:34;;;;;;;21.90;12.13;;;;;;;;;;744951;187;916061;-74
2021/07/22 03:34:00;;;;;;;20.52;12.85;;;;;;;;;;754891;186;914716;-74
2021/07/22 03:36:26;;;;;;;23.70;14.20;;;;;;;;;;747344;186;915845;-73
2021/07/22 03:38:51;;;;;;;25.08;14.63;;;;;;;;;;761150;183;923111;-74
2021/07/22 03:41:18;;;;;;;27.10;13.57;;;;;;;;;;752676;184;944377;-74
2021/07/22 03:43:43;;;;;;;28.47;14.17;;;;;;;;;;756077;183;919378;-73
2021/07/22 03:46:09;;;;;;;23.20;15.47;;;;;;;;;;755107;183;919836;-73
2021/07/22 03:48:35;;;;;;;29.58;14.93;;;;;;;;;;751021;186;940126;-72
2021/07/22 03:51:01;;;;;;;22.00;15.13;;;;;;;;;;758063;184;916087;-73
2021/07/22 03:53:27;;;;;;;28.67;15.50;;;;;;;;;;756659;183;918915;-73
2021/07/22 03:55:52;;;;;;;22.00;15.73;;;;;;;;;;756791;184;916423;-73
2021/07/22 03:58:18;;;;;;;30.07;15.83;;;;;;;;;;750027;185;983560;-73
2021/07/22 04:00:44;;;;;;;31.27;18.47;;;;;;;;;;745175;187;912809;-73
2021/07/22 04:03:10;;;;;;;22.43;14.47;;;;;;;;;;744441;187;912958;-73
2021/07/22 04:05:36;;;;;;;22.37;15.60;;;;;;;;;;750662;186;1015408;-73
2021/07/22 04:08:02;;;;;;;24.50;17.40;;;;;;;;;;755310;184;911587;-73
2021/07/22 04:10:28;;;;;;;29.50;19.67;;;;;;;;;;756580;182;918702;-74
2021/07/22 04:12:53;;;;;;;36.07;19.60;;;;;;;;;;762676;183;919029;-75
2021/07/22 04:15:23;;;;;;;35.63;20.87;;;;;;;;;;762208;183;919104;-74
2021/07/22 04:17:48;;;;;;;30.83;19.97;;;;;;;;;;756133;182;918716;-74
2021/07/22 04:20:14;;;;;;;45.70;20.87;;;;;;;;;;746833;187;918908;-74
2021/07/22 04:22:40;;;;;;;37.27;26.80;;;;;;;;;;752208;185;916817;-73
2021/07/22 04:25:06;;;;;;;42.90;21.80;;;;;;;;;;748124;186;917823;-73
2021/07/22 04:27:32;;;;;;;39.37;25.60;;;;;;;;;;747881;185;919094;-74
2021/07/22 04:30:00;;;;;;;27.83;17.70;;;;;;;;;;763402;183;1111242;-74
2021/07/22 04:32:23;;;;;;;32.10;18.67;;;;;;;;;;755923;183;919094;-74
2021/07/22 04:34:49;;;;;;;29.00;17.10;;;;;;;;;;748785;186;920487;-74
2021/07/22 04:37:15;;;;;;;24.93;15.27;;;;;;;;;;753495;186;918624;-74
2021/07/22 04:39:41;;;;;;;48.03;31.30;;;;;;;;;;746661;187;920823;-76
2021/07/22 04:42:07;;;;;;;24.80;17.40;;;;;;;;;;745922;186;917618;-76
2021/07/22 04:44:33;;;;;;;25.80;18.52;;;;;;;;;;754711;183;919085;-77
2021/07/22 04:46:59;;;;;;;34.57;25.13;;;;;;;;;;762315;183;918977;-74
2021/07/22 04:49:24;;;;;;;29.27;19.60;;;;;;;;;;759443;183;1063158;-77
2021/07/22 04:51:50;;;;;;;25.33;15.90;;;;;;;;;;748490;187;944893;-77
2021/07/22 04:54:16;;;;;;;25.55;16.42;;;;;;;;;;751839;186;914797;-76
2021/07/22 04:56:42;;;;;;;26.57;17.10;;;;;;;;;;761707;183;915563;-77
2021/07/22 04:59:08;;;;;;;24.27;15.90;;;;;;;;;;748289;187;915877;-76
2021/07/22 05:01:34;;;;;;;23.33;16.37;;;;;;;;;;753418;187;915460;-77
2021/07/22 05:04:00;;;;;;;21.80;15.88;;;;;;;;;;748955;186;915044;-79
2021/07/22 05:06:25;;;;;;;22.20;14.97;;;;;;;;;;750679;187;1001108;-79
2021/07/22 05:08:51;;;;;;;19.00;13.90;;;;;;;;;;758163;183;916100;-73
2021/07/22 05:11:17;;;;;;;22.80;14.38;;;;;;;;;;762296;182;915704;-77
2021/07/22 05:13:43;;;;;;;18.00;14.20;;;;;;;;;;754534;182;919542;-75
2021/07/22 05:16:09;;;;;;;28.00;20.87;;;;;;;;;;746999;186;919253;-78
2021/07/22 05:18:35;;;;;;;26.50;16.10;;;;;;;;;;750904;187;918424;-77
2021/07/22 05:21:02;;;;;;;22.93;16.30;;;;;;;;;;761373;183;919365;-76
2021/07/22 05:23:28;;;;;;;23.73;13.20;;;;;;;;;;746555;187;919411;-77
2021/07/22 05:25:54;;;;;;;19.40;14.83;;;;;;;;;;763786;183;919636;-76
2021/07/22 05:28:20;;;;;;;26.13;15.30;;;;;;;;;;754795;183;815916;-76
2021/07/22 05:30:46;;;;;;;22.03;16.23;;;;;;;;;;744416;186;919302;-77
2021/07/22 05:33:12;;;;;;;23.45;16.80;;;;;;;;;;749694;185;919095;-76
2021/07/22 05:35:38;;;;;;;21.60;13.93;;;;;;;;;;757944;184;918610;-76
2021/07/22 05:38:04;;;;;;;27.30;20.70;;;;;;;;;;750054;185;918773;-75
2021/07/22 05:40:30;;;;;;;19.73;14.10;;;;;;;;;;750068;183;918814;-75
2021/07/22 05:42:56;;;;;;;18.27;12.80;;;;;;;;;;765944;182;917550;-76
2021/07/22 05:45:21;;;;;;;23.63;13.00;;;;;;;;;;754349;183;919106;-77
2021/07/22 05:47:47;;;;;;;17.90;12.73;;;;;;;;;;760051;183;1022122;-77
2021/07/22 05:50:13;;;;;;;28.73;13.90;;;;;;;;;;753594;187;917918;-78
2021/07/22 05:52:39;;;;;;;22.20;16.60;;;;;;;;;;747917;187;919558;-76
2021/07/22 05:55:05;;;;;;;17.20;12.23;;;;;;;;;;750867;184;918733;-77
2021/07/22 05:57:32;;;;;;;24.33;13.93;;;;;;;;;;765138;182;919313;-77
2021/07/22 05:59:57;;;;;;;16.50;12.60;;;;;;;;;;748719;187;919361;-77
2021/07/22 06:02:23;;;;;;;19.50;12.73;;;;;;;;;;747353;186;1408004;-78
2021/07/22 06:04:49;;;;;;;18.43;11.80;;;;;;;;;;747947;187;893898;-76
2021/07/22 06:07:15;;;;;;;19.43;14.07;;;;;;;;;;763339;182;817610;-80
2021/07/22 06:09:41;;;;;;;17.90;12.03;;;;;;;;;;753614;183;918245;-79
2021/07/22 06:12:07;;;;;;;12.73;10.80;;;;;;;;;;757463;182;910566;-76
2021/07/22 06:14:32;;;;;;;18.87;12.43;;;;;;;;;;758795;182;819018;-78
2021/07/22 06:16:58;;;;;;;16.70;12.53;;;;;;;;;;747457;186;920114;-77
2021/07/22 06:19:24;;;;;;;17.23;11.27;;;;;;;;;;747728;186;921701;-78
2021/07/22 06:21:50;;;;;;;18.03;11.73;;;;;;;;;;750671;186;919699;-77
2021/07/22 06:24:16;;;;;;;21.63;15.27;;;;;;;;;;762090;181;917156;-79
2021/07/22 06:26:42;;;;;;;16.13;11.80;;;;;;;;;;749293;186;918299;-79
2021/07/22 06:29:07;;;;;;;22.13;13.73;;;;;;;;;;755617;183;920227;-78
2021/07/22 06:31:33;;;;;;;18.93;11.87;;;;;;;;;;754510;184;919207;-80
2021/07/22 06:33:59;;;;;;;17.93;10.33;;;;;;;;;;746194;186;918787;-80
2021/07/22 06:36:25;;;;;;;13.18;9.90;;;;;;;;;;745801;187;1021602;-80
2021/07/22 06:38:51;;;;;;;14.50;9.87;;;;;;;;;;753779;184;918872;-79
2021/07/22 06:41:18;;;;;;;24.60;11.20;;;;;;;;;;760243;183;918789;-78
2021/07/22 06:43:44;;;;;;;14.87;10.07;;;;;;;;;;752120;184;914999;-80
2021/07/22 06:46:09;;;;;;;17.93;11.33;;;;;;;;;;769771;182;918214;-79
2021/07/22 06:48:35;;;;;;;18.80;12.97;;;;;;;;;;750511;186;914656;-78
2021/07/22 06:51:01;;;;;;;25.50;11.20;;;;;;;;;;748830;186;915493;-80
2021/07/22 06:53:27;;;;;;;18.37;11.90;;;;;;;;;;753797;186;816402;-78
2021/07/22 06:55:54;;;;;;;18.10;12.30;;;;;;;;;;747565;186;919493;-76
2021/07/22 06:58:19;;;;;;;17.87;11.30;;;;;;;;;;749307;183;918114;-76
2021/07/22 07:00:44;;;;;;;18.87;9.67;;;;;;;;;;754476;182;1019131;-79
2021/07/22 07:03:10;;;;;;;17.60;10.30;;;;;;;;;;765117;183;919121;-80
2021/07/22 07:05:36;;;;;;;17.37;11.37;;;;;;;;;;761760;182;919348;-79
2021/07/22 07:08:02;;;;;;;16.47;11.33;;;;;;;;;;755028;183;919378;-78
2021/07/22 07:10:28;;;;;;;14.43;10.13;;;;;;;;;;752654;187;815951;-74
2021/07/22 07:12:54;;;;;;;19.93;10.47;;;;;;;;;;761389;182;817320;-78
2021/07/22 07:15:19;;;;;;;15.53;10.37;;;;;;;;;;762668;183;918558;-74
2021/07/22 07:17:45;;;;;;;17.00;9.90;;;;;;;;;;757023;183;816928;-76
2021/07/22 07:20:11;;;;;;;15.67;9.93;;;;;;;;;;746512;186;919447;-76
2021/07/22 07:22:37;;;;;;;14.27;10.03;;;;;;;;;;759338;182;920299;-76
2021/07/22 07:25:03;;;;;;;14.37;9.50;;;;;;;;;;763001;182;918680;-71
2021/07/22 07:27:29;;;;;;;13.43;8.73;;;;;;;;;;754852;183;815517;-76
2021/07/22 07:29:55;;;;;;;21.13;12.60;;;;;;;;;;746563;186;920511;-77
2021/07/22 07:32:21;;;;;;;17.90;10.10;;;;;;;;;;748081;186;919501;-75
2021/07/22 07:34:46;;;;;;;11.97;9.83;;;;;;;;;;752227;186;916784;-78
2021/07/22 07:37:12;;;;;;;14.40;9.23;;;;;;;;;;744715;187;816736;-76
2021/07/22 07:39:38;;;;;;;15.33;8.80;;;;;;;;;;752360;187;919635;-75
2021/07/22 07:42:04;;;;;;;17.80;9.20;;;;;;;;;;751178;187;816801;-76
2021/07/22 07:44:30;;;;;;;20.97;13.27;;;;;;;;;;749520;186;918365;-77
2021/07/22 07:46:56;;;;;;;15.27;9.60;;;;;;;;;;747220;186;916876;-75
2021/07/22 07:49:22;;;;;;;14.63;9.87;;;;;;;;;;750828;186;919287;-78
2021/07/22 07:51:47;;;;;;;15.50;9.67;;;;;;;;;;748461;187;918035;-75
2021/07/22 07:54:13;;;;;;;15.30;9.70;;;;;;;;;;751638;186;918996;-75
2021/07/22 07:56:39;;;;;;;35.47;22.83;;;;;;;;;;752093;184;919770;-76
2021/07/22 07:59:05;;;;;;;42.80;23.70;;;;;;;;;;756905;184;912336;-74
2021/07/22 08:01:31;;;;;;;29.03;15.63;;;;;;;;;;742299;187;916771;-73
2021/07/22 08:03:57;;;;;;;34.33;19.13;;;;;;;;;;746447;186;908459;-73
2021/07/22 08:06:22;;;;;;;18.77;9.67;;;;;;;;;;750996;186;919900;-76
2021/07/22 08:08:48;;;;;;;15.90;10.80;;;;;;;;;;750732;186;919511;-75
2021/07/22 08:11:15;;;;;;;14.63;9.23;;;;;;;;;;748683;186;1020738;-77
2021/07/22 08:13:40;;;;;;;20.97;13.47;;;;;;;;;;759520;183;819785;-72
2021/07/22 08:16:06;;;;;;;19.90;14.30;;;;;;;;;;756655;183;918430;-76
2021/07/22 08:18:32;;;;;;;14.02;9.55;;;;;;;;;;746601;186;1020727;-74
2021/07/22 08:20:58;;;;;;;25.20;11.83;;;;;;;;;;753684;186;918721;-72
2021/07/22 08:23:24;;;;;;;14.43;8.30;;;;;;;;;;749460;186;932030;-76
2021/07/22 08:25:50;;;;;;;19.07;12.73;;;;;;;;;;756645;182;919566;-75
2021/07/22 08:28:15;;;;;;;10.60;9.30;;;;;;;;;;753768;186;1023331;-75
2021/07/22 08:30:41;;;;;;;16.10;9.23;;;;;;;;;;752178;186;875605;-73
2021/07/22 08:33:07;;;;;;;17.63;9.93;;;;;;;;;;745556;186;919034;-74
2021/07/22 08:35:33;;;;;;;12.83;8.20;;;;;;;;;;746810;184;918742;-74
2021/07/22 08:37:59;;;;;;;14.60;7.57;;;;;;;;;;762961;183;881754;-79
2021/07/22 08:40:25;;;;;;;14.60;7.67;;;;;;;;;;750558;187;898758;-77
2021/07/22 08:42:50;;;;;;;19.43;7.53;;;;;;;;;;748245;186;917810;-75
2021/07/22 08:45:17;;;;;;;12.85;7.60;;;;;;;;;;751504;186;887307;-76
2021/07/22 08:47:42;;;;;;;17.50;8.17;;;;;;;;;;749198;186;634374;-73
2021/07/22 08:50:08;;;;;;;16.57;10.73;;;;;;;;;;746106;187;919227;-73
2021/07/22 08:52:34;;;;;;;15.70;9.50;;;;;;;;;;747757;187;918077;-74
2021/07/22 08:55:00;;;;;;;16.23;8.00;;;;;;;;;;756557;184;918851;-80
2021/07/22 08:57:29;;;;;;;18.90;11.13;;;;;;;;;;745662;187;919260;-76
2021/07/22 08:59:52;;;;;;;13.70;8.90;;;;;;;;;;747558;186;1019621;-74
2021/07/22 09:02:17;;;;;;;16.33;9.27;;;;;;;;;;753453;187;919518;-75
2021/07/22 09:04:50;;;;;;;19.60;11.87;;;;;;;;;;745584;186;936402;-71
2021/07/22 09:07:18;;;;;;;14.73;9.70;;;;;;;;;;752387;184;919245;-73
2021/07/22 09:09:43;;;;;;;12.00;7.13;;;;;;;;;;761358;181;918279;-73
2021/07/22 09:12:08;;;;;;;14.53;8.43;;;;;;;;;;768962;183;859604;-73
2021/07/22 09:14:35;;;;;;;15.80;9.67;;;;;;;;;;760735;183;918731;-75
2021/07/22 09:17:00;;;;;;;18.47;10.30;;;;;;;;;;752851;183;1022650;-72
2021/07/22 09:19:32;;;;;;;24.20;11.50;;;;;;;;;;765714;183;914080;-74
2021/07/22 09:21:58;;;;;;;16.13;9.10;;;;;;;;;;759874;182;917209;-73
2021/07/22 09:24:23;;;;;;;12.73;7.80;;;;;;;;;;757878;182;920266;-74
2021/07/22 09:26:51;;;;;;;9.03;6.63;;;;;;;;;;750107;186;915623;-71
2021/07/22 09:29:17;;;;;;;19.73;9.93;;;;;;;;;;755033;184;919079;-75
2021/07/22 09:31:43;;;;;;;18.98;11.77;;;;;;;;;;744150;185;921037;-74
2021/07/22 09:34:15;;;;;;;13.50;7.47;;;;;;;;;;724735;191;918099;-74
2021/07/22 09:36:40;;;;;;;18.73;11.60;;;;;;;;;;756080;187;921067;-74
2021/07/22 09:39:12;;;;;;;14.73;9.83;;;;;;;;;;751476;186;919248;-72
2021/07/22 09:41:38;;;;;;;15.63;8.73;;;;;;;;;;749611;186;882578;-70
2021/07/22 09:44:04;;;;;;;12.23;9.47;;;;;;;;;;760271;181;1045324;-74
2021/07/22 09:46:36;;;;;;;11.67;7.70;;;;;;;;;;756974;184;920348;-77
2021/07/22 09:49:07;;;;;;;20.13;14.63;;;;;;;;;;745361;186;916729;-75
2021/07/22 09:51:33;;;;;;;33.70;15.27;;;;;;;;;;748974;184;918033;-74
2021/07/22 09:54:05;;;;;;;17.70;12.70;;;;;;;;;;762123;183;918271;-75
2021/07/22 09:56:37;;;;;;;18.57;11.80;;;;;;;;;;772505;181;836212;-76
2021/07/22 09:59:03;;;;;;;10.93;7.43;;;;;;;;;;761956;182;913497;-76
2021/07/22 10:01:30;;;;;;;13.33;8.17;;;;;;;;;;758315;182;866309;-73
2021/07/22 10:03:56;;;;;;;13.62;9.07;;;;;;;;;;750050;186;919106;-75
2021/07/22 10:06:22;;;;;;;14.90;9.20;;;;;;;;;;752109;187;913724;-76
2021/07/22 10:08:48;;;;;;;23.23;11.53;;;;;;;;;;750626;186;913281;-75
2021/07/22 10:11:15;;;;;;;22.20;9.07;;;;;;;;;;744253;186;920344;-75
2021/07/22 10:13:40;;;;;;;23.70;9.80;;;;;;;;;;752977;186;919194;-74
2021/07/22 10:16:06;;;;;;;14.07;9.40;;;;;;;;;;745959;186;919813;-73
2021/07/22 10:18:32;;;;;;;20.37;10.60;;;;;;;;;;748395;186;918808;-74
2021/07/22 10:20:59;;;;;;;12.37;8.00;;;;;;;;;;749672;185;919191;-75
2021/07/22 10:23:24;;;;;;;13.40;7.83;;;;;;;;;;762548;183;918553;-73
2021/07/22 10:25:49;;;;;;;9.00;6.63;;;;;;;;;;758241;182;919069;-73
2021/07/22 10:28:15;;;;;;;11.33;7.30;;;;;;;;;;760608;182;919412;-72
2021/07/22 10:30:41;;;;;;;12.60;7.40;;;;;;;;;;751683;187;919021;-80
2021/07/22 10:33:07;;;;;;;11.73;6.60;;;;;;;;;;763528;180;918982;-70
2021/07/22 10:35:33;;;;;;;8.43;5.83;;;;;;;;;;752145;186;919676;-73
2021/07/22 10:38:01;;;;;;;9.07;7.00;;;;;;;;;;767001;182;917679;-74
2021/07/22 10:40:27;;;;;;;9.37;5.90;;;;;;;;;;740986;186;918450;-72
2021/07/22 10:42:53;;;;;;;13.03;5.83;;;;;;;;;;750400;183;918701;-74
2021/07/22 10:45:23;;;;;;;11.70;8.03;;;;;;;;;;758855;183;896002;-78
2021/07/22 10:48:08;;;;;;;13.00;6.17;;;;;;;;;;759520;183;917818;-75
2021/07/22 10:50:53;;;;;;;9.63;6.20;;;;;;;;;;765466;183;775945;-75
2021/07/22 10:53:18;;;;;;;9.10;6.27;;;;;;;;;;754880;182;916997;-72
2021/07/22 10:55:47;;;;;;;17.33;6.90;;;;;;;;;;752724;182;1020918;-72
2021/07/22 10:58:33;;;;;;;10.97;6.60;;;;;;;;;;745397;184;943629;-73
2021/07/22 11:00:59;;;;;;;7.70;5.10;;;;;;;;;;744347;186;816216;-74
2021/07/22 11:03:31;;;;;;;17.30;7.47;;;;;;;;;;745094;186;919239;-71
2021/07/22 11:05:57;;;;;;;9.17;6.27;;;;;;;;;;751586;186;919388;-71
2021/07/22 11:08:25;;;;;;;9.30;7.20;;;;;;;;;;744838;186;919720;-71
2021/07/22 11:10:53;;;;;;;9.80;6.40;;;;;;;;;;744351;186;918760;-73
2021/07/22 11:13:25;;;;;;;8.80;5.37;;;;;;;;;;745503;186;919509;-72
2021/07/22 11:15:50;;;;;;;8.73;6.10;;;;;;;;;;749288;187;1021847;-71
2021/07/22 11:18:22;;;;;;;11.23;6.77;;;;;;;;;;752820;182;919706;-71
2021/07/22 11:20:48;;;;;;;8.43;6.20;;;;;;;;;;755745;182;919496;-71
2021/07/22 11:23:14;;;;;;;9.07;6.10;;;;;;;;;;745236;184;918965;-73
2021/07/22 11:25:42;;;;;;;8.90;7.30;;;;;;;;;;761383;183;918755;-71
2021/07/22 11:28:07;;;;;;;7.60;6.57;;;;;;;;;;753716;183;932571;-69
2021/07/22 11:30:33;;;;;;;10.33;6.00;;;;;;;;;;757054;183;918209;-72
2021/07/22 11:33:16;;;;;;;13.60;8.50;;;;;;;;;;750938;184;918219;-72
2021/07/22 11:35:42;;;;;;;9.10;6.00;;;;;;;;;;753482;186;881898;-71
2021/07/22 11:38:08;;;;;;;10.40;6.60;;;;;;;;;;762288;182;913796;-72
2021/07/22 11:40:33;;;;;;;11.52;7.03;;;;;;;;;;757735;183;917371;-71
2021/07/22 11:43:00;;;;;;;9.13;5.93;;;;;;;;;;750950;186;993964;-75
2021/07/22 11:45:26;;;;;;;11.10;7.90;;;;;;;;;;756947;183;919227;-73
2021/07/22 11:47:53;;;;;;;12.40;6.27;;;;;;;;;;758736;182;869477;-71
2021/07/22 11:50:18;;;;;;;9.20;6.50;;;;;;;;;;748036;186;918953;-74
2021/07/22 11:52:43;;;;;;;7.63;5.70;;;;;;;;;;750345;186;917978;-75
2021/07/22 11:55:09;;;;;;;7.93;6.00;;;;;;;;;;752101;186;918602;-74
2021/07/22 11:57:35;;;;;;;9.45;6.50;;;;;;;;;;757464;183;918633;-74
2021/07/22 12:00:01;;;;;;;9.87;5.87;;;;;;;;;;741385;188;816235;-72
2021/07/22 12:02:27;;;;;;;9.60;5.93;;;;;;;;;;744334;188;921032;-72
2021/07/22 12:04:53;;;;;;;11.23;6.20;;;;;;;;;;755415;184;815561;-73
2021/07/22 12:07:19;;;;;;;9.80;5.33;;;;;;;;;;768186;182;816714;-71
2021/07/22 12:09:50;;;;;;;9.00;4.77;;;;;;;;;;765863;179;919341;-69
2021/07/22 12:12:16;;;;;;;8.40;5.87;;;;;;;;;;753563;184;1023900;-73
2021/07/22 12:14:42;;;;;;;11.43;6.30;;;;;;;;;;754314;183;917854;-74
2021/07/22 12:17:08;;;;;;;9.10;6.03;;;;;;;;;;756231;184;918704;-72
2021/07/22 12:19:34;;;;;;;9.73;6.10;;;;;;;;;;756301;183;920537;-73
2021/07/22 12:22:06;;;;;;;13.63;6.60;;;;;;;;;;746171;187;919157;-72
2021/07/22 12:24:31;;;;;;;12.77;6.95;;;;;;;;;;746784;186;919024;-74
2021/07/22 12:26:57;;;;;;;12.60;7.10;;;;;;;;;;751617;186;919757;-74
2021/07/22 12:29:23;;;;;;;11.90;6.67;;;;;;;;;;746181;186;1017484;-74
2021/07/22 12:31:49;;;;;;;8.37;5.67;;;;;;;;;;748273;186;918359;-75
2021/07/22 12:34:15;;;;;;;9.90;5.87;;;;;;;;;;750103;186;814947;-74
2021/07/22 12:36:41;;;;;;;11.47;5.77;;;;;;;;;;749540;183;913584;-73
2021/07/22 12:39:27;;;;;;;9.90;7.00;;;;;;;;;;763696;183;917406;-70
2021/07/22 12:41:48;;;;;;;15.70;6.03;;;;;;;;;;751739;186;917542;-73
2021/07/22 12:44:20;;;;;;;8.63;5.87;;;;;;;;;;763436;183;815449;-75
2021/07/22 12:46:46;;;;;;;8.27;4.97;;;;;;;;;;761041;183;910637;-76
2021/07/22 12:49:12;;;;;;;8.57;6.17;;;;;;;;;;754780;182;919007;-76
2021/07/22 12:51:38;;;;;;;8.45;5.43;;;;;;;;;;748839;186;814420;-75
2021/07/22 12:54:03;;;;;;;9.30;5.80;;;;;;;;;;754570;186;919475;-76
2021/07/22 12:56:29;;;;;;;10.50;6.03;;;;;;;;;;761238;183;813004;-74
2021/07/22 12:58:55;;;;;;;11.40;6.00;;;;;;;;;;746862;186;915964;-75
2021/07/22 13:01:21;;;;;;;10.27;6.10;;;;;;;;;;751157;186;912358;-77
2021/07/22 13:03:48;;;;;;;9.90;6.30;;;;;;;;;;749326;186;915510;-75
2021/07/22 13:06:14;;;;;;;13.48;6.43;;;;;;;;;;753026;187;912284;-77
2021/07/22 13:08:40;;;;;;;7.53;5.60;;;;;;;;;;766995;183;808953;-80
2021/07/22 13:11:07;;;;;;;13.07;6.60;;;;;;;;;;749209;184;971057;-73
2021/07/22 13:13:32;;;;;;;8.80;5.67;;;;;;;;;;746480;187;915224;-76
2021/07/22 13:15:58;;;;;;;7.97;5.63;;;;;;;;;;752039;183;920539;-75
2021/07/22 13:18:24;;;;;;;9.80;6.30;;;;;;;;;;763321;183;815552;-76
2021/07/22 13:20:50;;;;;;;7.80;6.23;;;;;;;;;;751780;184;920883;-75
2021/07/22 13:23:16;;;;;;;10.80;6.50;;;;;;;;;;762414;183;815331;-77
2021/07/22 13:25:42;;;;;;;8.25;5.95;;;;;;;;;;752275;187;919205;-76
2021/07/22 13:28:07;;;;;;;11.70;6.43;;;;;;;;;;764426;183;916312;-74
2021/07/22 13:30:33;;;;;;;16.42;10.57;;;;;;;;;;764178;182;918553;-76
2021/07/22 13:32:59;;;;;;;11.37;6.10;;;;;;;;;;761538;182;918904;-76
2021/07/22 13:35:33;;;;;;;7.43;5.63;;;;;;;;;;750898;184;920981;-76
2021/07/22 13:37:53;;;;;;;11.73;6.30;;;;;;;;;;756961;182;1022440;-75
2021/07/22 13:40:21;;;;;;;9.53;6.33;;;;;;;;;;747523;186;918914;-73
2021/07/22 13:42:45;;;;;;;8.10;6.33;;;;;;;;;;753624;186;892569;-75
2021/07/22 13:45:11;;;;;;;11.83;6.50;;;;;;;;;;746941;186;916802;-77
2021/07/22 13:47:37;;;;;;;7.23;6.17;;;;;;;;;;747459;187;814708;-76
2021/07/22 13:50:03;;;;;;;10.47;6.17;;;;;;;;;;753176;187;817102;-75
2021/07/22 13:52:28;;;;;;;9.73;6.20;;;;;;;;;;749395;184;921073;-76
2021/07/22 13:54:55;;;;;;;10.70;5.37;;;;;;;;;;759631;180;915226;-75
2021/07/22 13:57:20;;;;;;;17.20;6.67;;;;;;;;;;763492;182;915626;-75
2021/07/22 13:59:46;;;;;;;12.80;5.70;;;;;;;;;;758105;182;916227;-77
2021/07/22 14:02:12;;;;;;;10.30;7.50;;;;;;;;;;759444;183;917536;-77
2021/07/22 14:04:38;;;;;;;9.10;6.13;;;;;;;;;;755651;183;917097;-77
2021/07/22 14:07:04;;;;;;;8.70;5.93;;;;;;;;;;760063;182;818428;-75
2021/07/22 14:09:30;;;;;;;8.70;5.50;;;;;;;;;;747928;186;916580;-77